Portada
METAR-TAF:

METAR-TAF

Aeropuertos :

Locarno, Suiza

latitud: 46-09-55N, longitud: 8-52-40E, altitud: 198 m

Observación

El informe se hizo hace 20 minutos, a las 07:50 UTC
Viento 2 kt con dirección variable
Temperatura 7°C
Humedad 70%
Presión 1035 hPa
Visibilidad 10 km o más
sin nubes por debajo de 1500 m y sin presencia de cumulonimbus.

METAR: LSZL 250750Z VRB02KT CAVOK 07/02 Q1035 RMK BLU

Hora: 09:10 (08:10 UTC)

Pronóstico

El informe se hizo hace 2 horas y 45 minutos, a las 05:25 UTC
Pronóstico válido del 25 a las 06 UTC al 25 a las 15 UTC
Viento 2 kt con dirección variable
Visibilidad 10 km o más
sin nubes por debajo de 1500 m y sin presencia de cumulonimbus.
Temporalmente
del 25 a las 06 UTC al 25 a las 15 UTC
Visibilidad: 8000 m

TAF: LSZL 250525Z 2506/2515 VRB02KT CAVOK TEMPO 2506/2515 8000 NSC

Observaciones y pronósticos meteorológicos de más de 4000 aeropuertos (mensajes METAR y TAF).

Los puntos amarillos y rojos representan las estaciones disponibles.

Ponga el ratón en el punto deseado para ver el nombre de la estación.

Haga clic para ver las observaciones y los pronósticos meteorológicos.

Para cambiar el mapa : haga clic en los botones verdes con una cruz de color negro para hacer un zoom, en el botón verde con un guión para alejar o en las flechas verdes para mapas adyacentes.


METAR-TAF: